This is the latest recevied weather packets stored in our database for station/object AE5HO. If no packets are shown the sender has not sent any weather packets the latest 10 day(s).
| Time | Temp. | Humidity | Pressure | Rain* | Wind** | Luminosity | Snow |
|---|---|---|---|---|---|---|---|
| 1787757072 | 33.89° C | 55% | 1015.3 hPa | 0 mm | - | 456 W/m² | - |
| 1787756766 | 32.78° C | 56% | 1015.6 hPa | 0 mm | - | 179 W/m² | - |
| 1787756462 | 32.78° C | 56% | 1015.6 hPa | 0 mm | - | 163 W/m² | - |
| 1787756161 | 32.78° C | 56% | 1015.3 hPa | 0 mm | - | 95 W/m² | - |
| 1787755856 | 32.78° C | 56% | 1015.6 hPa | 0 mm | - | 153 W/m² | - |
| 1787755555 | 32.22° C | 57% | 1015.6 hPa | 0 mm | - | 73 W/m² | - |
| 1787755250 | 32.22° C | 56% | 1015.3 hPa | 0 mm | - | 84 W/m² | - |
| 1787754949 | 31.67° C | 57% | 1015.5 hPa | 0 mm | - | 70 W/m² | - |
| 1787754644 | 31.11° C | 57% | 1015.5 hPa | 0 mm | - | 78 W/m² | - |
| 1787754342 | 31.11° C | 57% | 1015.6 hPa | 0 mm | - | 53 W/m² | - |
| 1787754037 | 31.11° C | 57% | 1015.4 hPa | 0 mm | - | 49 W/m² | - |
| 1787753736 | 30.56° C | 57% | 1015.7 hPa | 0 mm | - | 46 W/m² | - |
| 1787753436 | 30.56° C | 58% | 1015.5 hPa | 0 mm | - | 45 W/m² | - |
| 1787753134 | 30.56° C | 58% | 1015.6 hPa | 0 mm | - | 43 W/m² | - |
| 1787752830 | 30° C | 59% | 1015.6 hPa | 0 mm | - | 42 W/m² | - |
| 1787752529 | 30° C | 60% | 1015.6 hPa | 0 mm | - | 39 W/m² | - |
| 1787752225 | 29.44° C | 61% | 1015.7 hPa | 0 mm | - | 38 W/m² | - |
| 1787751922 | 29.44° C | 61% | 1015.7 hPa | 0 mm | - | 37 W/m² | - |
| 1787751618 | 29.44° C | 61% | 1015.6 hPa | 0 mm | - | 32 W/m² | - |
| 1787751313 | 28.89° C | 62% | 1015.8 hPa | 0 mm | - | 28 W/m² | - |
| 1787751009 | 28.89° C | 62% | 1015.7 hPa | 0 mm | - | 31 W/m² | - |
| 1787750704 | 28.89° C | 62% | 1015.5 hPa | 0 mm | - | 34 W/m² | - |
| 1787750404 | 28.89° C | 62% | 1015.5 hPa | 0 mm | - | 28 W/m² | - |
| 1787750104 | 28.89° C | 62% | 1015.6 hPa | 0 mm | - | 29 W/m² | - |
| 1787749801 | 28.89° C | 61% | 1015.5 hPa | 0 mm | - | 34 W/m² | - |
* Rain latest hour (hover to see other rain measurements)
** Current wind speed in m/s (hover to see current wind gust speed)